Garneill, Montana
Current Conditions -  °F | °C
As of 2:54 AM on Friday 21 Nov 2014 (Local Time) from KLWT Reporting Station
Clear Clear  
Wind Chill: 25°   Ceiling: Unl
Heat Index: 34°   Visibility: 10mi
Dew Point: 24°   Wind: 12mph
Humidity: 67%   Direction: 240°WSW
Pressure: 29.77"   Gusts: NA
Location:  46.75°N, 109.75°W
Report Text: KLWT 210954Z AUTO 24010KT 10SM CLR 01/M04 A2977 RMK AO2 SLP088 T00111044
Loading
Personal Weather Stations






























Interactive Weather Map New forecast layout! Learn more

10-Day Weather Forecast

Advertisements
Track Severe Weather on mobile